sensor_id;sensor_type;location;lat;lon;timestamp;P1;durP1;ratioP1;P2;durP2;ratioP2
5718;SDS011;2884;47.734;9.244;2023-03-03T00:02:21;54.67;;;29.70;;
5718;SDS011;2884;47.734;9.244;2023-03-03T00:04:47;70.73;;;30.00;;
5718;SDS011;2884;47.734;9.244;2023-03-03T00:07:13;55.70;;;27.30;;
5718;SDS011;2884;47.734;9.244;2023-03-03T00:09:45;45.67;;;26.75;;
5718;SDS011;2884;47.734;9.244;2023-03-03T00:12:25;53.78;;;25.98;;
5718;SDS011;2884;47.734;9.244;2023-03-03T00:14:52;53.63;;;26.15;;
5718;SDS011;2884;47.734;9.244;2023-03-03T00:17:38;50.87;;;25.70;;
5718;SDS011;2884;47.734;9.244;2023-03-03T00:20:21;53.22;;;26.80;;
5718;SDS011;2884;47.734;9.244;2023-03-03T00:23:05;47.28;;;24.80;;
5718;SDS011;2884;47.734;9.244;2023-03-03T00:25:38;48.90;;;25.92;;
5718;SDS011;2884;47.734;9.244;2023-03-03T00:31:39;49.80;;;25.50;;
5718;SDS011;2884;47.734;9.244;2023-03-03T00:34:19;53.63;;;25.35;;
5718;SDS011;2884;47.734;9.244;2023-03-03T00:36:53;50.63;;;22.85;;
5718;SDS011;2884;47.734;9.244;2023-03-03T00:39:30;49.05;;;24.75;;
5718;SDS011;2884;47.734;9.244;2023-03-03T00:41:58;49.38;;;24.65;;
5718;SDS011;2884;47.734;9.244;2023-03-03T00:46:56;51.40;;;24.88;;
5718;SDS011;2884;47.734;9.244;2023-03-03T00:49:26;55.40;;;27.10;;
5718;SDS011;2884;47.734;9.244;2023-03-03T00:51:52;47.97;;;25.67;;
5718;SDS011;2884;47.734;9.244;2023-03-03T00:54:18;50.13;;;25.67;;
5718;SDS011;2884;47.734;9.244;2023-03-03T00:56:44;52.43;;;25.40;;
5718;SDS011;2884;47.734;9.244;2023-03-03T00:59:09;51.00;;;25.13;;
5718;SDS011;2884;47.734;9.244;2023-03-03T01:01:35;48.60;;;25.97;;
5718;SDS011;2884;47.734;9.244;2023-03-03T01:04:01;49.28;;;25.63;;
5718;SDS011;2884;47.734;9.244;2023-03-03T01:06:27;51.60;;;25.60;;
5718;SDS011;2884;47.734;9.244;2023-03-03T01:08:52;51.57;;;25.90;;
5718;SDS011;2884;47.734;9.244;2023-03-03T01:11:25;46.22;;;24.60;;
5718;SDS011;2884;47.734;9.244;2023-03-03T01:13:52;54.50;;;26.15;;
5718;SDS011;2884;47.734;9.244;2023-03-03T01:16:18;56.17;;;26.13;;
5718;SDS011;2884;47.734;9.244;2023-03-03T01:18:44;48.87;;;24.67;;
5718;SDS011;2884;47.734;9.244;2023-03-03T01:21:10;43.40;;;23.90;;
5718;SDS011;2884;47.734;9.244;2023-03-03T01:23:36;50.17;;;24.70;;
5718;SDS011;2884;47.734;9.244;2023-03-03T01:26:02;49.85;;;25.58;;
5718;SDS011;2884;47.734;9.244;2023-03-03T01:28:28;50.92;;;25.77;;
5718;SDS011;2884;47.734;9.244;2023-03-03T01:30:58;48.27;;;24.57;;
5718;SDS011;2884;47.734;9.244;2023-03-03T01:33:25;46.72;;;24.73;;
5718;SDS011;2884;47.734;9.244;2023-03-03T01:35:50;47.30;;;25.13;;
5718;SDS011;2884;47.734;9.244;2023-03-03T01:38:16;45.20;;;24.20;;
5718;SDS011;2884;47.734;9.244;2023-03-03T01:40:42;46.63;;;25.67;;
5718;SDS011;2884;47.734;9.244;2023-03-03T01:43:07;49.20;;;24.90;;
5718;SDS011;2884;47.734;9.244;2023-03-03T01:48:19;48.33;;;24.65;;
5718;SDS011;2884;47.734;9.244;2023-03-03T01:50:48;50.10;;;23.70;;
5718;SDS011;2884;47.734;9.244;2023-03-03T01:53:21;53.08;;;24.35;;
5718;SDS011;2884;47.734;9.244;2023-03-03T01:55:48;41.45;;;23.40;;
5718;SDS011;2884;47.734;9.244;2023-03-03T01:58:19;48.35;;;25.70;;
5718;SDS011;2884;47.734;9.244;2023-03-03T02:00:48;52.83;;;27.58;;
5718;SDS011;2884;47.734;9.244;2023-03-03T02:03:16;48.88;;;25.80;;
5718;SDS011;2884;47.734;9.244;2023-03-03T02:05:43;50.70;;;26.60;;
5718;SDS011;2884;47.734;9.244;2023-03-03T02:08:09;49.77;;;25.10;;
5718;SDS011;2884;47.734;9.244;2023-03-03T02:10:37;46.30;;;24.38;;
5718;SDS011;2884;47.734;9.244;2023-03-03T02:13:02;51.50;;;24.83;;
5718;SDS011;2884;47.734;9.244;2023-03-03T02:15:28;54.47;;;25.60;;
5718;SDS011;2884;47.734;9.244;2023-03-03T02:18:13;50.70;;;26.58;;
5718;SDS011;2884;47.734;9.244;2023-03-03T02:23:22;47.38;;;24.80;;
5718;SDS011;2884;47.734;9.244;2023-03-03T02:28:17;53.47;;;25.90;;
5718;SDS011;2884;47.734;9.244;2023-03-03T02:30:42;53.27;;;26.47;;
5718;SDS011;2884;47.734;9.244;2023-03-03T02:33:08;48.67;;;24.83;;
5718;SDS011;2884;47.734;9.244;2023-03-03T02:35:37;47.37;;;24.83;;
5718;SDS011;2884;47.734;9.244;2023-03-03T02:40:51;51.50;;;25.98;;
5718;SDS011;2884;47.734;9.244;2023-03-03T02:44:19;50.50;;;25.55;;
5718;SDS011;2884;47.734;9.244;2023-03-03T02:46:31;52.85;;;26.13;;
5718;SDS011;2884;47.734;9.244;2023-03-03T02:48:59;52.53;;;25.60;;
5718;SDS011;2884;47.734;9.244;2023-03-03T02:51:24;49.63;;;25.93;;
5718;SDS011;2884;47.734;9.244;2023-03-03T02:53:50;45.20;;;23.67;;
5718;SDS011;2884;47.734;9.244;2023-03-03T02:56:16;45.87;;;24.97;;
5718;SDS011;2884;47.734;9.244;2023-03-03T02:58:41;51.90;;;26.17;;
5718;SDS011;2884;47.734;9.244;2023-03-03T03:01:07;50.47;;;27.20;;
5718;SDS011;2884;47.734;9.244;2023-03-03T03:03:33;53.50;;;25.95;;
5718;SDS011;2884;47.734;9.244;2023-03-03T03:05:58;49.70;;;25.70;;
5718;SDS011;2884;47.734;9.244;2023-03-03T03:08:24;56.67;;;26.20;;
5718;SDS011;2884;47.734;9.244;2023-03-03T03:10:50;50.53;;;26.70;;
5718;SDS011;2884;47.734;9.244;2023-03-03T03:13:15;48.17;;;25.60;;
5718;SDS011;2884;47.734;9.244;2023-03-03T03:15:41;50.00;;;26.80;;
5718;SDS011;2884;47.734;9.244;2023-03-03T03:18:06;46.43;;;25.00;;
5718;SDS011;2884;47.734;9.244;2023-03-03T03:20:36;54.07;;;26.47;;
5718;SDS011;2884;47.734;9.244;2023-03-03T03:23:04;44.65;;;24.23;;
5718;SDS011;2884;47.734;9.244;2023-03-03T03:25:30;55.30;;;27.85;;
5718;SDS011;2884;47.734;9.244;2023-03-03T03:27:56;50.20;;;25.20;;
5718;SDS011;2884;47.734;9.244;2023-03-03T03:30:21;52.73;;;25.47;;
5718;SDS011;2884;47.734;9.244;2023-03-03T03:32:47;56.00;;;25.20;;
5718;SDS011;2884;47.734;9.244;2023-03-03T03:35:13;45.90;;;25.27;;
5718;SDS011;2884;47.734;9.244;2023-03-03T03:37:38;57.70;;;29.13;;
5718;SDS011;2884;47.734;9.244;2023-03-03T03:40:04;54.13;;;29.27;;
5718;SDS011;2884;47.734;9.244;2023-03-03T03:42:30;50.78;;;26.67;;
5718;SDS011;2884;47.734;9.244;2023-03-03T03:44:56;52.20;;;27.50;;
5718;SDS011;2884;47.734;9.244;2023-03-03T03:47:22;55.03;;;27.90;;
5718;SDS011;2884;47.734;9.244;2023-03-03T03:49:47;59.27;;;28.10;;
5718;SDS011;2884;47.734;9.244;2023-03-03T03:52:13;49.13;;;26.37;;
5718;SDS011;2884;47.734;9.244;2023-03-03T03:54:38;49.27;;;25.20;;
5718;SDS011;2884;47.734;9.244;2023-03-03T03:57:04;51.00;;;26.93;;
5718;SDS011;2884;47.734;9.244;2023-03-03T03:59:29;48.80;;;27.73;;
5718;SDS011;2884;47.734;9.244;2023-03-03T04:01:55;53.20;;;28.40;;
5718;SDS011;2884;47.734;9.244;2023-03-03T04:04:21;50.77;;;25.83;;
5718;SDS011;2884;47.734;9.244;2023-03-03T04:06:50;53.25;;;27.08;;
5718;SDS011;2884;47.734;9.244;2023-03-03T04:09:16;56.23;;;29.00;;
5718;SDS011;2884;47.734;9.244;2023-03-03T04:11:41;57.40;;;27.90;;
5718;SDS011;2884;47.734;9.244;2023-03-03T04:14:07;58.50;;;26.30;;
5718;SDS011;2884;47.734;9.244;2023-03-03T04:16:33;49.23;;;26.83;;
5718;SDS011;2884;47.734;9.244;2023-03-03T04:18:58;50.77;;;26.30;;
5718;SDS011;2884;47.734;9.244;2023-03-03T04:21:24;55.90;;;27.73;;
5718;SDS011;2884;47.734;9.244;2023-03-03T04:23:49;52.90;;;28.40;;
5718;SDS011;2884;47.734;9.244;2023-03-03T04:26:15;54.33;;;27.50;;
5718;SDS011;2884;47.734;9.244;2023-03-03T04:28:41;51.77;;;26.57;;
5718;SDS011;2884;47.734;9.244;2023-03-03T04:31:06;51.80;;;27.70;;
5718;SDS011;2884;47.734;9.244;2023-03-03T04:33:32;57.90;;;28.17;;
5718;SDS011;2884;47.734;9.244;2023-03-03T04:35:57;63.20;;;29.17;;
5718;SDS011;2884;47.734;9.244;2023-03-03T04:38:23;55.53;;;26.80;;
5718;SDS011;2884;47.734;9.244;2023-03-03T04:40:49;61.33;;;29.13;;
5718;SDS011;2884;47.734;9.244;2023-03-03T04:43:14;50.43;;;26.30;;
5718;SDS011;2884;47.734;9.244;2023-03-03T04:45:40;45.00;;;23.67;;
5718;SDS011;2884;47.734;9.244;2023-03-03T04:48:06;54.47;;;27.63;;
5718;SDS011;2884;47.734;9.244;2023-03-03T04:50:31;44.90;;;25.63;;
5718;SDS011;2884;47.734;9.244;2023-03-03T04:52:57;53.20;;;25.70;;
5718;SDS011;2884;47.734;9.244;2023-03-03T04:55:23;48.13;;;25.10;;
5718;SDS011;2884;47.734;9.244;2023-03-03T04:57:48;52.37;;;26.20;;
5718;SDS011;2884;47.734;9.244;2023-03-03T05:00:14;45.23;;;25.17;;
5718;SDS011;2884;47.734;9.244;2023-03-03T05:02:40;49.50;;;24.80;;
5718;SDS011;2884;47.734;9.244;2023-03-03T05:05:06;46.90;;;25.67;;
5718;SDS011;2884;47.734;9.244;2023-03-03T05:07:34;50.13;;;25.40;;
5718;SDS011;2884;47.734;9.244;2023-03-03T05:09:59;50.30;;;25.47;;
5718;SDS011;2884;47.734;9.244;2023-03-03T05:12:25;49.83;;;23.90;;
5718;SDS011;2884;47.734;9.244;2023-03-03T05:14:51;48.92;;;25.80;;
5718;SDS011;2884;47.734;9.244;2023-03-03T05:17:17;48.60;;;26.43;;
5718;SDS011;2884;47.734;9.244;2023-03-03T05:19:42;57.23;;;27.63;;
5718;SDS011;2884;47.734;9.244;2023-03-03T05:22:08;54.67;;;26.93;;
5718;SDS011;2884;47.734;9.244;2023-03-03T05:24:34;45.20;;;25.10;;
5718;SDS011;2884;47.734;9.244;2023-03-03T05:27:00;51.03;;;26.50;;
5718;SDS011;2884;47.734;9.244;2023-03-03T05:29:26;51.00;;;26.92;;
5718;SDS011;2884;47.734;9.244;2023-03-03T05:31:52;50.33;;;26.67;;
5718;SDS011;2884;47.734;9.244;2023-03-03T05:34:18;50.10;;;27.23;;
5718;SDS011;2884;47.734;9.244;2023-03-03T05:36:43;56.17;;;28.03;;
5718;SDS011;2884;47.734;9.244;2023-03-03T05:39:09;52.77;;;26.07;;
5718;SDS011;2884;47.734;9.244;2023-03-03T05:41:34;50.10;;;27.60;;
5718;SDS011;2884;47.734;9.244;2023-03-03T05:44:01;56.78;;;28.20;;
5718;SDS011;2884;47.734;9.244;2023-03-03T05:46:27;49.05;;;25.63;;
5718;SDS011;2884;47.734;9.244;2023-03-03T05:48:53;63.70;;;26.60;;
5718;SDS011;2884;47.734;9.244;2023-03-03T05:51:18;49.00;;;26.57;;
5718;SDS011;2884;47.734;9.244;2023-03-03T05:53:44;46.90;;;27.20;;
5718;SDS011;2884;47.734;9.244;2023-03-03T05:56:09;53.40;;;27.77;;
5718;SDS011;2884;47.734;9.244;2023-03-03T05:58:35;52.03;;;26.20;;
5718;SDS011;2884;47.734;9.244;2023-03-03T06:01:01;50.27;;;28.87;;
5718;SDS011;2884;47.734;9.244;2023-03-03T06:03:26;45.43;;;26.10;;
5718;SDS011;2884;47.734;9.244;2023-03-03T06:05:53;50.83;;;26.88;;
5718;SDS011;2884;47.734;9.244;2023-03-03T06:08:18;47.73;;;27.60;;
5718;SDS011;2884;47.734;9.244;2023-03-03T06:10:44;52.83;;;28.37;;
5718;SDS011;2884;47.734;9.244;2023-03-03T06:13:10;57.23;;;28.97;;
5718;SDS011;2884;47.734;9.244;2023-03-03T06:15:35;58.33;;;28.53;;
5718;SDS011;2884;47.734;9.244;2023-03-03T06:18:01;57.17;;;28.67;;
5718;SDS011;2884;47.734;9.244;2023-03-03T06:20:26;63.30;;;29.13;;
5718;SDS011;2884;47.734;9.244;2023-03-03T06:22:52;60.23;;;29.17;;
5718;SDS011;2884;47.734;9.244;2023-03-03T06:25:17;56.90;;;30.30;;
5718;SDS011;2884;47.734;9.244;2023-03-03T06:27:43;60.27;;;30.67;;
5718;SDS011;2884;47.734;9.244;2023-03-03T06:30:09;57.30;;;29.40;;
5718;SDS011;2884;47.734;9.244;2023-03-03T06:32:35;54.60;;;28.63;;
5718;SDS011;2884;47.734;9.244;2023-03-03T06:35:00;56.33;;;29.67;;
5718;SDS011;2884;47.734;9.244;2023-03-03T06:37:26;58.07;;;29.07;;
5718;SDS011;2884;47.734;9.244;2023-03-03T06:39:51;56.13;;;29.70;;
5718;SDS011;2884;47.734;9.244;2023-03-03T06:42:17;59.13;;;30.73;;
5718;SDS011;2884;47.734;9.244;2023-03-03T06:44:43;60.40;;;30.13;;
5718;SDS011;2884;47.734;9.244;2023-03-03T06:47:09;63.83;;;30.70;;
5718;SDS011;2884;47.734;9.244;2023-03-03T06:49:35;54.87;;;29.10;;
5718;SDS011;2884;47.734;9.244;2023-03-03T06:52:00;56.87;;;28.97;;
5718;SDS011;2884;47.734;9.244;2023-03-03T06:54:36;57.20;;;30.70;;
5718;SDS011;2884;47.734;9.244;2023-03-03T06:57:24;61.13;;;30.87;;
5718;SDS011;2884;47.734;9.244;2023-03-03T06:59:51;58.58;;;29.63;;
5718;SDS011;2884;47.734;9.244;2023-03-03T07:02:20;67.05;;;32.33;;
5718;SDS011;2884;47.734;9.244;2023-03-03T07:04:46;52.63;;;28.80;;
5718;SDS011;2884;47.734;9.244;2023-03-03T07:07:15;60.33;;;31.43;;
5718;SDS011;2884;47.734;9.244;2023-03-03T07:09:43;58.63;;;29.92;;
5718;SDS011;2884;47.734;9.244;2023-03-03T07:12:10;52.25;;;28.95;;
5718;SDS011;2884;47.734;9.244;2023-03-03T07:14:42;58.55;;;31.15;;
5718;SDS011;2884;47.734;9.244;2023-03-03T07:17:18;58.22;;;30.27;;
5718;SDS011;2884;47.734;9.244;2023-03-03T07:19:45;54.80;;;30.67;;
5718;SDS011;2884;47.734;9.244;2023-03-03T07:24:48;57.60;;;30.00;;
5718;SDS011;2884;47.734;9.244;2023-03-03T07:29:48;60.45;;;32.95;;
5718;SDS011;2884;47.734;9.244;2023-03-03T07:35:25;67.60;;;32.10;;
5718;SDS011;2884;47.734;9.244;2023-03-03T07:37:53;58.33;;;30.40;;
5718;SDS011;2884;47.734;9.244;2023-03-03T07:40:38;55.67;;;31.05;;
5718;SDS011;2884;47.734;9.244;2023-03-03T07:43:26;59.58;;;31.45;;
5718;SDS011;2884;47.734;9.244;2023-03-03T07:45:52;57.95;;;30.65;;
5718;SDS011;2884;47.734;9.244;2023-03-03T07:48:23;61.27;;;31.70;;
5718;SDS011;2884;47.734;9.244;2023-03-03T07:50:51;54.10;;;30.48;;
5718;SDS011;2884;47.734;9.244;2023-03-03T07:53:21;62.15;;;32.28;;
5718;SDS011;2884;47.734;9.244;2023-03-03T07:55:50;61.28;;;29.70;;
5718;SDS011;2884;47.734;9.244;2023-03-03T08:03:35;63.05;;;32.05;;
5718;SDS011;2884;47.734;9.244;2023-03-03T08:06:05;58.60;;;29.33;;
5718;SDS011;2884;47.734;9.244;2023-03-03T08:14:25;59.15;;;32.55;;
5718;SDS011;2884;47.734;9.244;2023-03-03T08:16:52;61.90;;;32.47;;
5718;SDS011;2884;47.734;9.244;2023-03-03T08:19:18;56.20;;;31.30;;
5718;SDS011;2884;47.734;9.244;2023-03-03T08:21:44;69.10;;;31.92;;
5718;SDS011;2884;47.734;9.244;2023-03-03T08:24:22;60.30;;;32.13;;
5718;SDS011;2884;47.734;9.244;2023-03-03T08:26:51;65.32;;;33.45;;
5718;SDS011;2884;47.734;9.244;2023-03-03T08:29:17;64.70;;;31.97;;
5718;SDS011;2884;47.734;9.244;2023-03-03T08:31:43;57.33;;;31.03;;
5718;SDS011;2884;47.734;9.244;2023-03-03T08:34:08;61.83;;;33.23;;
5718;SDS011;2884;47.734;9.244;2023-03-03T08:36:34;64.43;;;33.80;;
5718;SDS011;2884;47.734;9.244;2023-03-03T08:38:59;54.80;;;29.47;;
5718;SDS011;2884;47.734;9.244;2023-03-03T08:41:25;76.37;;;35.70;;
5718;SDS011;2884;47.734;9.244;2023-03-03T08:43:51;66.83;;;33.40;;
5718;SDS011;2884;47.734;9.244;2023-03-03T08:46:16;62.80;;;31.20;;
5718;SDS011;2884;47.734;9.244;2023-03-03T08:48:42;63.87;;;34.17;;
5718;SDS011;2884;47.734;9.244;2023-03-03T08:51:07;61.50;;;32.57;;
5718;SDS011;2884;47.734;9.244;2023-03-03T08:53:33;55.60;;;31.90;;
5718;SDS011;2884;47.734;9.244;2023-03-03T08:56:01;63.42;;;33.65;;
5718;SDS011;2884;47.734;9.244;2023-03-03T08:58:26;59.13;;;32.80;;
5718;SDS011;2884;47.734;9.244;2023-03-03T09:00:52;72.30;;;33.27;;
5718;SDS011;2884;47.734;9.244;2023-03-03T09:03:18;60.27;;;32.17;;
5718;SDS011;2884;47.734;9.244;2023-03-03T09:05:43;59.50;;;32.43;;
5718;SDS011;2884;47.734;9.244;2023-03-03T09:08:09;65.00;;;33.90;;
5718;SDS011;2884;47.734;9.244;2023-03-03T09:10:35;55.60;;;30.20;;
5718;SDS011;2884;47.734;9.244;2023-03-03T09:13:03;64.57;;;33.40;;
5718;SDS011;2884;47.734;9.244;2023-03-03T09:15:40;66.13;;;32.40;;
5718;SDS011;2884;47.734;9.244;2023-03-03T09:18:12;59.23;;;32.83;;
5718;SDS011;2884;47.734;9.244;2023-03-03T09:20:52;66.13;;;33.30;;
5718;SDS011;2884;47.734;9.244;2023-03-03T09:25:54;54.10;;;30.53;;
5718;SDS011;2884;47.734;9.244;2023-03-03T09:28:24;61.20;;;33.40;;
5718;SDS011;2884;47.734;9.244;2023-03-03T09:31:00;54.03;;;30.33;;
5718;SDS011;2884;47.734;9.244;2023-03-03T09:33:30;59.37;;;31.20;;
5718;SDS011;2884;47.734;9.244;2023-03-03T09:36:26;68.03;;;33.50;;
5718;SDS011;2884;47.734;9.244;2023-03-03T09:38:53;56.20;;;31.20;;
5718;SDS011;2884;47.734;9.244;2023-03-03T09:49:33;61.90;;;32.93;;
5718;SDS011;2884;47.734;9.244;2023-03-03T10:06:48;58.40;;;31.63;;
5718;SDS011;2884;47.734;9.244;2023-03-03T10:09:39;63.00;;;33.50;;
5718;SDS011;2884;47.734;9.244;2023-03-03T10:12:38;63.43;;;32.70;;
5718;SDS011;2884;47.734;9.244;2023-03-03T10:15:17;57.60;;;33.27;;
5718;SDS011;2884;47.734;9.244;2023-03-03T10:17:51;60.50;;;32.63;;
5718;SDS011;2884;47.734;9.244;2023-03-03T10:20:23;61.97;;;32.07;;
5718;SDS011;2884;47.734;9.244;2023-03-03T10:23:08;62.43;;;31.37;;
5718;SDS011;2884;47.734;9.244;2023-03-03T10:36:23;58.97;;;32.00;;
5718;SDS011;2884;47.734;9.244;2023-03-03T10:41:59;63.80;;;33.50;;
5718;SDS011;2884;47.734;9.244;2023-03-03T10:49:46;70.03;;;34.47;;
5718;SDS011;2884;47.734;9.244;2023-03-03T11:00:22;63.90;;;33.13;;
5718;SDS011;2884;47.734;9.244;2023-03-03T11:08:22;64.33;;;34.77;;
5718;SDS011;2884;47.734;9.244;2023-03-03T11:16:39;60.27;;;32.87;;
5718;SDS011;2884;47.734;9.244;2023-03-03T11:19:25;65.27;;;34.00;;
5718;SDS011;2884;47.734;9.244;2023-03-03T11:30:27;71.00;;;36.00;;
5718;SDS011;2884;47.734;9.244;2023-03-03T11:33:19;69.90;;;32.60;;
5718;SDS011;2884;47.734;9.244;2023-03-03T11:38:41;63.40;;;33.13;;
5718;SDS011;2884;47.734;9.244;2023-03-03T11:46:08;65.00;;;35.03;;
5718;SDS011;2884;47.734;9.244;2023-03-03T11:54:27;64.13;;;33.47;;
5718;SDS011;2884;47.734;9.244;2023-03-03T11:57:13;66.23;;;33.47;;
5718;SDS011;2884;47.734;9.244;2023-03-03T11:59:47;79.60;;;36.13;;
5718;SDS011;2884;47.734;9.244;2023-03-03T12:24:39;60.73;;;31.50;;
5718;SDS011;2884;47.734;9.244;2023-03-03T12:40:56;62.63;;;34.10;;
5718;SDS011;2884;47.734;9.244;2023-03-03T12:46:18;61.10;;;35.50;;
5718;SDS011;2884;47.734;9.244;2023-03-03T12:49:03;62.47;;;34.30;;
5718;SDS011;2884;47.734;9.244;2023-03-03T12:57:12;63.40;;;35.53;;
5718;SDS011;2884;47.734;9.244;2023-03-03T12:59:50;56.70;;;31.77;;
5718;SDS011;2884;47.734;9.244;2023-03-03T13:07:57;69.60;;;36.90;;
5718;SDS011;2884;47.734;9.244;2023-03-03T13:13:42;65.40;;;35.77;;
5718;SDS011;2884;47.734;9.244;2023-03-03T13:16:19;71.80;;;34.90;;
5718;SDS011;2884;47.734;9.244;2023-03-03T13:26:52;63.20;;;33.80;;
5718;SDS011;2884;47.734;9.244;2023-03-03T13:29:25;64.07;;;33.80;;
5718;SDS011;2884;47.734;9.244;2023-03-03T13:31:54;61.20;;;33.20;;
5718;SDS011;2884;47.734;9.244;2023-03-03T13:39:55;68.60;;;35.47;;
5718;SDS011;2884;47.734;9.244;2023-03-03T13:44:48;65.07;;;34.60;;
5718;SDS011;2884;47.734;9.244;2023-03-03T13:47:23;64.33;;;36.40;;
5718;SDS011;2884;47.734;9.244;2023-03-03T13:55:39;58.43;;;32.53;;
5718;SDS011;2884;47.734;9.244;2023-03-03T13:58:23;68.47;;;34.57;;
5718;SDS011;2884;47.734;9.244;2023-03-03T14:01:11;63.30;;;33.80;;
5718;SDS011;2884;47.734;9.244;2023-03-03T14:06:16;66.30;;;34.27;;
5718;SDS011;2884;47.734;9.244;2023-03-03T14:17:27;70.53;;;36.80;;
5718;SDS011;2884;47.734;9.244;2023-03-03T14:20:01;67.00;;;35.60;;
5718;SDS011;2884;47.734;9.244;2023-03-03T14:22:50;68.83;;;37.80;;
5718;SDS011;2884;47.734;9.244;2023-03-03T14:25:19;66.97;;;35.27;;
5718;SDS011;2884;47.734;9.244;2023-03-03T14:30:30;69.83;;;35.63;;
5718;SDS011;2884;47.734;9.244;2023-03-03T14:35:39;60.43;;;34.27;;
5718;SDS011;2884;47.734;9.244;2023-03-03T14:40:40;66.70;;;34.07;;
5718;SDS011;2884;47.734;9.244;2023-03-03T14:43:44;64.00;;;34.93;;
5718;SDS011;2884;47.734;9.244;2023-03-03T14:49:06;59.20;;;34.30;;
5718;SDS011;2884;47.734;9.244;2023-03-03T14:51:46;71.50;;;36.63;;
5718;SDS011;2884;47.734;9.244;2023-03-03T14:54:36;67.20;;;36.60;;
5718;SDS011;2884;47.734;9.244;2023-03-03T14:57:06;63.90;;;35.10;;
5718;SDS011;2884;47.734;9.244;2023-03-03T14:59:37;71.77;;;36.17;;
5718;SDS011;2884;47.734;9.244;2023-03-03T15:04:43;71.00;;;35.70;;
5718;SDS011;2884;47.734;9.244;2023-03-03T15:10:00;66.97;;;33.87;;
5718;SDS011;2884;47.734;9.244;2023-03-03T15:23:10;72.80;;;36.67;;
5718;SDS011;2884;47.734;9.244;2023-03-03T15:31:19;72.73;;;35.97;;
5718;SDS011;2884;47.734;9.244;2023-03-03T15:34:05;75.73;;;36.00;;
5718;SDS011;2884;47.734;9.244;2023-03-03T15:36:49;67.93;;;35.37;;
5718;SDS011;2884;47.734;9.244;2023-03-03T15:42:17;71.83;;;36.93;;
5718;SDS011;2884;47.734;9.244;2023-03-03T16:01:26;65.37;;;34.70;;
5718;SDS011;2884;47.734;9.244;2023-03-03T16:06:48;67.13;;;36.60;;
5718;SDS011;2884;47.734;9.244;2023-03-03T16:14:58;71.27;;;35.50;;
5718;SDS011;2884;47.734;9.244;2023-03-03T16:17:40;64.80;;;35.60;;
5718;SDS011;2884;47.734;9.244;2023-03-03T16:23:27;72.77;;;35.40;;
5718;SDS011;2884;47.734;9.244;2023-03-03T16:30:49;73.20;;;37.23;;
5718;SDS011;2884;47.734;9.244;2023-03-03T16:33:20;60.83;;;32.70;;
5718;SDS011;2884;47.734;9.244;2023-03-03T16:38:36;61.97;;;34.37;;
5718;SDS011;2884;47.734;9.244;2023-03-03T16:41:04;68.37;;;34.43;;
5718;SDS011;2884;47.734;9.244;2023-03-03T16:49:06;63.00;;;34.27;;
5718;SDS011;2884;47.734;9.244;2023-03-03T16:54:32;71.90;;;34.97;;
5718;SDS011;2884;47.734;9.244;2023-03-03T17:05:12;78.73;;;37.63;;
5718;SDS011;2884;47.734;9.244;2023-03-03T17:10:26;62.87;;;34.57;;
5718;SDS011;2884;47.734;9.244;2023-03-03T17:21:38;68.07;;;36.33;;
5718;SDS011;2884;47.734;9.244;2023-03-03T17:35:16;61.30;;;33.80;;
5718;SDS011;2884;47.734;9.244;2023-03-03T17:46:26;62.17;;;34.77;;
5718;SDS011;2884;47.734;9.244;2023-03-03T18:08:00;67.93;;;36.97;;
5718;SDS011;2884;47.734;9.244;2023-03-03T18:18:49;64.27;;;37.00;;
5718;SDS011;2884;47.734;9.244;2023-03-03T18:24:27;78.53;;;40.87;;
5718;SDS011;2884;47.734;9.244;2023-03-03T18:26:54;78.27;;;39.50;;
5718;SDS011;2884;47.734;9.244;2023-03-03T18:29:23;67.00;;;38.70;;
5718;SDS011;2884;47.734;9.244;2023-03-03T18:37:00;66.27;;;35.37;;
5718;SDS011;2884;47.734;9.244;2023-03-03T18:42:10;73.00;;;36.10;;
5718;SDS011;2884;47.734;9.244;2023-03-03T18:44:39;62.20;;;34.60;;
5718;SDS011;2884;47.734;9.244;2023-03-03T18:47:05;64.17;;;35.83;;
5718;SDS011;2884;47.734;9.244;2023-03-03T18:54:58;75.73;;;39.30;;
5718;SDS011;2884;47.734;9.244;2023-03-03T18:57:34;70.88;;;38.88;;
5718;SDS011;2884;47.734;9.244;2023-03-03T19:00:09;81.80;;;39.60;;
5718;SDS011;2884;47.734;9.244;2023-03-03T19:02:41;89.63;;;39.90;;
5718;SDS011;2884;47.734;9.244;2023-03-03T19:05:17;82.53;;;39.90;;
5718;SDS011;2884;47.734;9.244;2023-03-03T19:10:49;85.83;;;41.33;;
5718;SDS011;2884;47.734;9.244;2023-03-03T19:16:01;86.27;;;39.40;;
5718;SDS011;2884;47.734;9.244;2023-03-03T19:18:28;97.50;;;44.77;;
5718;SDS011;2884;47.734;9.244;2023-03-03T19:21:03;89.30;;;44.70;;
5718;SDS011;2884;47.734;9.244;2023-03-03T19:35:17;101.27;;;48.53;;
5718;SDS011;2884;47.734;9.244;2023-03-03T19:37:57;71.63;;;37.47;;
5718;SDS011;2884;47.734;9.244;2023-03-03T19:40:45;72.77;;;38.10;;
5718;SDS011;2884;47.734;9.244;2023-03-03T19:43:37;72.53;;;36.80;;
5718;SDS011;2884;47.734;9.244;2023-03-03T19:54:21;78.23;;;42.30;;
5718;SDS011;2884;47.734;9.244;2023-03-03T19:56:54;74.70;;;38.43;;
5718;SDS011;2884;47.734;9.244;2023-03-03T20:05:20;77.57;;;40.40;;
5718;SDS011;2884;47.734;9.244;2023-03-03T20:07:54;76.17;;;38.63;;
5718;SDS011;2884;47.734;9.244;2023-03-03T20:10:33;69.00;;;37.67;;
5718;SDS011;2884;47.734;9.244;2023-03-03T20:22:10;81.10;;;38.77;;
5718;SDS011;2884;47.734;9.244;2023-03-03T20:24:53;73.60;;;37.75;;
5718;SDS011;2884;47.734;9.244;2023-03-03T20:27:35;79.10;;;40.03;;
5718;SDS011;2884;47.734;9.244;2023-03-03T20:35:31;76.85;;;38.55;;
5718;SDS011;2884;47.734;9.244;2023-03-03T20:38:21;68.70;;;35.70;;
5718;SDS011;2884;47.734;9.244;2023-03-03T20:46:17;77.25;;;37.92;;
5718;SDS011;2884;47.734;9.244;2023-03-03T20:48:51;67.70;;;35.03;;
5718;SDS011;2884;47.734;9.244;2023-03-03T20:59:54;76.27;;;38.87;;
5718;SDS011;2884;47.734;9.244;2023-03-03T21:02:36;79.70;;;42.28;;
5718;SDS011;2884;47.734;9.244;2023-03-03T21:05:18;81.00;;;41.43;;
5718;SDS011;2884;47.734;9.244;2023-03-03T21:07:50;74.57;;;39.67;;
5718;SDS011;2884;47.734;9.244;2023-03-03T21:10:20;63.83;;;36.23;;
5718;SDS011;2884;47.734;9.244;2023-03-03T21:12:52;77.38;;;39.95;;
5718;SDS011;2884;47.734;9.244;2023-03-03T21:17:53;76.13;;;39.22;;
5718;SDS011;2884;47.734;9.244;2023-03-03T21:22:56;68.90;;;37.57;;
5718;SDS011;2884;47.734;9.244;2023-03-03T21:28:25;68.87;;;36.50;;
5718;SDS011;2884;47.734;9.244;2023-03-03T21:36:03;68.85;;;36.38;;
5718;SDS011;2884;47.734;9.244;2023-03-03T21:38:31;69.77;;;35.87;;
5718;SDS011;2884;47.734;9.244;2023-03-03T21:41:01;78.53;;;38.13;;
5718;SDS011;2884;47.734;9.244;2023-03-03T21:43:34;70.77;;;37.30;;
5718;SDS011;2884;47.734;9.244;2023-03-03T21:46:01;77.13;;;38.53;;
5718;SDS011;2884;47.734;9.244;2023-03-03T21:48:26;84.30;;;43.50;;
5718;SDS011;2884;47.734;9.244;2023-03-03T21:50:52;81.97;;;41.77;;
5718;SDS011;2884;47.734;9.244;2023-03-03T21:53:17;85.57;;;42.03;;
5718;SDS011;2884;47.734;9.244;2023-03-03T21:55:45;75.45;;;38.53;;
5718;SDS011;2884;47.734;9.244;2023-03-03T21:58:16;73.82;;;40.35;;
5718;SDS011;2884;47.734;9.244;2023-03-03T22:00:42;77.20;;;39.23;;
5718;SDS011;2884;47.734;9.244;2023-03-03T22:03:08;84.10;;;40.97;;
5718;SDS011;2884;47.734;9.244;2023-03-03T22:05:34;76.93;;;40.15;;
5718;SDS011;2884;47.734;9.244;2023-03-03T22:08:00;79.73;;;39.80;;
5718;SDS011;2884;47.734;9.244;2023-03-03T22:10:25;74.90;;;38.27;;
5718;SDS011;2884;47.734;9.244;2023-03-03T22:12:51;74.50;;;36.53;;
5718;SDS011;2884;47.734;9.244;2023-03-03T22:15:17;81.20;;;37.83;;
5718;SDS011;2884;47.734;9.244;2023-03-03T22:17:42;67.40;;;34.70;;
5718;SDS011;2884;47.734;9.244;2023-03-03T22:20:09;70.07;;;35.80;;
5718;SDS011;2884;47.734;9.244;2023-03-03T22:22:35;64.40;;;34.53;;
5718;SDS011;2884;47.734;9.244;2023-03-03T22:25:01;69.73;;;36.27;;
5718;SDS011;2884;47.734;9.244;2023-03-03T22:27:26;60.10;;;32.03;;
5718;SDS011;2884;47.734;9.244;2023-03-03T22:29:52;72.50;;;35.33;;